createdAt,value
2022-10-29T00:00:52.933Z,12.11
2022-10-29T00:03:20.966Z,12.11
2022-10-29T00:05:59.510Z,12.10
2022-10-29T00:08:26.788Z,12.11
2022-10-29T00:10:53.626Z,12.12
2022-10-29T00:13:20.461Z,12.10
2022-10-29T00:15:47.413Z,12.12
2022-10-29T00:18:14.249Z,12.14
2022-10-29T00:20:41.064Z,12.12
2022-10-29T00:23:07.850Z,12.13
2022-10-29T00:25:34.652Z,12.02
2022-10-29T00:28:01.426Z,12.09
2022-10-29T00:30:28.196Z,12.12
2022-10-29T00:32:55.309Z,12.03
2022-10-29T00:35:22.513Z,12.14
2022-10-29T00:37:49.671Z,12.12
2022-10-29T00:40:16.515Z,12.10
2022-10-29T00:42:43.221Z,12.06
2022-10-29T00:45:19.716Z,12.01
2022-10-29T00:47:51.030Z,12.10
2022-10-29T00:50:20.216Z,12.08
2022-10-29T00:52:50.197Z,11.97
2022-10-29T00:55:19.533Z,12.01
2022-10-29T00:57:52.358Z,11.98
2022-10-29T01:00:21.342Z,11.98
2022-10-29T01:02:48.415Z,12.01
2022-10-29T01:05:28.147Z,11.99
2022-10-29T01:07:55.122Z,11.99
2022-10-29T01:10:36.271Z,11.96
2022-10-29T01:13:13.699Z,12.01
2022-10-29T01:16:02.200Z,12.00
2022-10-29T01:18:48.530Z,11.98
2022-10-29T01:21:38.653Z,11.98
2022-10-29T01:24:17.583Z,11.98
2022-10-29T01:27:10.720Z,11.94
2022-10-29T01:30:13.052Z,11.93
2022-10-29T01:32:49.924Z,11.90
2022-10-29T01:35:19.310Z,11.89
2022-10-29T01:38:10.156Z,11.89
2022-10-29T01:40:50.806Z,11.93
2022-10-29T01:44:10.179Z,11.95
2022-10-29T01:46:48.604Z,11.99
2022-10-29T01:49:21.849Z,11.99
2022-10-29T01:51:51.191Z,12.02
2022-10-29T01:54:18.025Z,12.01
2022-10-29T01:56:54.008Z,12.00
2022-10-29T01:59:35.353Z,11.97
2022-10-29T02:02:21.279Z,12.00
2022-10-29T02:05:12.788Z,11.96
2022-10-29T02:07:56.825Z,12.01
2022-10-29T02:10:33.964Z,12.00
2022-10-29T02:13:01.000Z,12.01
2022-10-29T02:15:35.485Z,12.01
2022-10-29T02:18:05.447Z,11.97
2022-10-29T02:20:32.532Z,12.01
2022-10-29T02:22:59.485Z,11.94
2022-10-29T02:25:27.551Z,12.00
2022-10-29T02:27:54.704Z,12.00
2022-10-29T02:30:21.610Z,12.01
2022-10-29T02:32:48.426Z,11.99
2022-10-29T02:35:15.230Z,12.00
2022-10-29T02:37:42.182Z,12.01
2022-10-29T02:40:09.587Z,11.94
2022-10-29T02:42:36.601Z,11.93
2022-10-29T02:45:03.770Z,11.93
2022-10-29T02:47:30.542Z,11.95
2022-10-29T02:49:57.267Z,11.97
2022-10-29T02:52:24.141Z,12.00
2022-10-29T02:54:50.869Z,11.98
2022-10-29T02:57:17.702Z,11.97
2022-10-29T02:59:44.586Z,12.01
2022-10-29T03:02:11.483Z,11.98
2022-10-29T03:04:39.538Z,12.01
2022-10-29T03:07:06.473Z,12.00
2022-10-29T03:09:33.325Z,11.98
2022-10-29T03:12:00.075Z,12.00
2022-10-29T03:14:26.829Z,11.99
2022-10-29T03:16:53.569Z,11.97
2022-10-29T03:19:20.307Z,11.98
2022-10-29T03:21:47.095Z,11.90
2022-10-29T03:24:13.874Z,11.96
2022-10-29T03:26:40.694Z,11.95
2022-10-29T03:29:07.519Z,11.96
2022-10-29T03:31:34.346Z,11.96
2022-10-29T03:34:01.201Z,11.93
2022-10-29T03:36:28.004Z,11.92
2022-10-29T03:38:54.728Z,11.92
2022-10-29T03:41:21.463Z,11.92
2022-10-29T03:43:48.369Z,11.91
2022-10-29T03:46:15.248Z,11.91
2022-10-29T03:48:42.094Z,11.94
2022-10-29T03:51:10.057Z,11.94
2022-10-29T03:53:37.597Z,11.92
2022-10-29T03:56:05.018Z,11.94
2022-10-29T03:58:31.827Z,11.96
2022-10-29T04:01:06.825Z,11.95
2022-10-29T04:03:34.999Z,11.96
2022-10-29T04:06:08.493Z,11.89
2022-10-29T04:08:35.329Z,11.94
2022-10-29T04:11:02.112Z,11.93
2022-10-29T04:13:28.847Z,11.97
2022-10-29T04:15:56.439Z,11.95
2022-10-29T04:18:24.514Z,11.94
2022-10-29T04:29:11.792Z,11.95
2022-10-29T04:31:38.605Z,11.93
2022-10-29T04:34:05.635Z,11.93
2022-10-29T04:36:32.356Z,11.92
2022-10-29T04:38:59.156Z,11.90
2022-10-29T04:41:25.992Z,11.93
2022-10-29T04:43:52.816Z,11.91
2022-10-29T04:46:19.641Z,11.95
2022-10-29T04:48:46.465Z,11.92
2022-10-29T04:51:21.169Z,11.96
2022-10-29T04:53:48.349Z,11.96
2022-10-29T04:56:15.254Z,11.94
2022-10-29T04:58:42.048Z,11.95
2022-10-29T05:01:08.966Z,11.93
2022-10-29T05:03:36.338Z,11.91
2022-10-29T05:06:05.171Z,11.88
2022-10-29T05:08:32.222Z,11.92
2022-10-29T05:11:02.291Z,11.94
2022-10-29T05:13:29.332Z,11.95
2022-10-29T05:15:56.137Z,11.94
2022-10-29T05:18:23.224Z,11.94
2022-10-29T05:20:54.182Z,11.93
2022-10-29T05:23:21.328Z,11.93
2022-10-29T05:25:49.310Z,11.96
2022-10-29T05:28:21.342Z,11.97
2022-10-29T05:30:50.412Z,11.98
2022-10-29T05:33:20.616Z,12.00
2022-10-29T05:35:48.230Z,12.00
2022-10-29T05:38:16.364Z,11.97
2022-10-29T05:40:45.205Z,12.02
2022-10-29T05:43:16.821Z,11.97
2022-10-29T05:45:44.061Z,11.96
2022-10-29T05:50:39.903Z,11.97
2022-10-29T05:53:10.111Z,11.90
2022-10-29T05:55:37.165Z,12.01
2022-10-29T05:58:06.782Z,11.95
2022-10-29T06:00:38.846Z,12.03
2022-10-29T06:03:20.155Z,11.94
2022-10-29T06:05:48.082Z,12.00
2022-10-29T06:08:15.383Z,11.99
2022-10-29T06:10:42.239Z,11.97
2022-10-29T06:13:13.773Z,11.96
2022-10-29T06:15:40.852Z,12.04
2022-10-29T06:18:07.778Z,12.07
2022-10-29T06:20:35.003Z,12.11
2022-10-29T06:23:01.863Z,12.10
2022-10-29T06:25:28.957Z,12.09
2022-10-29T06:28:06.269Z,12.04
2022-10-29T06:30:34.714Z,11.99
2022-10-29T06:33:02.604Z,12.02
2022-10-29T06:35:29.666Z,11.97
2022-10-29T06:37:56.839Z,11.92
2022-10-29T06:40:23.813Z,11.91
2022-10-29T06:42:50.662Z,11.89
2022-10-29T06:45:17.473Z,11.88
2022-10-29T06:47:45.678Z,11.86
2022-10-29T06:50:14.222Z,11.90
2022-10-29T06:52:40.961Z,11.89
2022-10-29T06:55:08.479Z,11.86
2022-10-29T06:57:35.547Z,11.88
2022-10-29T07:00:07.272Z,11.93
2022-10-29T07:02:35.797Z,11.99
2022-10-29T07:05:02.606Z,11.98
2022-10-29T07:07:29.849Z,12.03
2022-10-29T07:09:58.242Z,12.07
2022-10-29T07:12:25.040Z,12.11
2022-10-29T07:14:51.837Z,12.09
2022-10-29T07:17:18.662Z,12.14
2022-10-29T07:19:45.430Z,12.05
2022-10-29T07:22:12.229Z,12.01
2022-10-29T07:24:39.076Z,11.96
2022-10-29T07:27:07.355Z,11.98
2022-10-29T07:29:35.264Z,11.98
2022-10-29T07:32:02.050Z,11.93
2022-10-29T07:34:28.785Z,11.98
2022-10-29T07:36:55.506Z,12.03
2022-10-29T07:39:22.816Z,12.01
2022-10-29T07:41:50.239Z,12.01
2022-10-29T07:44:17.623Z,11.98
2022-10-29T07:46:44.334Z,12.01
2022-10-29T07:49:11.547Z,12.01
2022-10-29T07:51:38.476Z,12.03
2022-10-29T07:54:05.241Z,12.03
2022-10-29T07:56:32.105Z,12.01
2022-10-29T07:58:59.121Z,12.02
2022-10-29T08:01:26.201Z,12.10
2022-10-29T08:03:53.089Z,12.18
2022-10-29T08:06:19.862Z,12.09
2022-10-29T08:08:46.850Z,12.02
2022-10-29T08:11:13.695Z,12.05
2022-10-29T08:13:40.440Z,12.13
2022-10-29T08:16:07.682Z,12.18
2022-10-29T08:18:34.920Z,12.15
2022-10-29T08:21:05.867Z,12.20
2022-10-29T08:23:32.676Z,12.16
2022-10-29T08:25:59.501Z,12.00
2022-10-29T08:28:27.610Z,12.06
2022-10-29T08:30:55.274Z,12.07
2022-10-29T08:33:22.096Z,12.04
2022-10-29T08:35:49.144Z,12.08
2022-10-29T08:38:15.992Z,12.07
2022-10-29T08:41:07.183Z,12.11
2022-10-29T08:43:44.563Z,12.06
2022-10-29T08:46:42.198Z,12.07
2022-10-29T08:49:20.977Z,12.18
2022-10-29T08:51:55.442Z,12.17
2022-10-29T08:54:30.727Z,12.16
2022-10-29T08:57:02.130Z,12.20
2022-10-29T08:59:35.709Z,12.11
2022-10-29T09:02:02.664Z,12.09
2022-10-29T09:04:39.191Z,12.08
2022-10-29T09:07:24.778Z,12.04
2022-10-29T09:10:06.616Z,12.13
2022-10-29T09:12:44.335Z,12.14
2022-10-29T09:15:41.364Z,12.05
2022-10-29T09:18:29.461Z,12.15
2022-10-29T09:21:08.140Z,12.09
2022-10-29T09:24:10.364Z,12.21
2022-10-29T09:26:37.050Z,12.17
2022-10-29T09:29:34.031Z,12.12
2022-10-29T09:32:16.688Z,12.19
2022-10-29T09:34:49.847Z,12.20
2022-10-29T09:37:33.954Z,12.23
2022-10-29T09:40:06.194Z,12.33
2022-10-29T09:42:38.300Z,12.33
2022-10-29T09:45:10.975Z,12.28
2022-10-29T09:47:56.064Z,12.25
2022-10-29T09:50:36.145Z,12.24
2022-10-29T09:53:03.335Z,12.33
2022-10-29T09:55:39.822Z,12.33
2022-10-29T09:58:07.260Z,12.26
2022-10-29T10:00:35.158Z,12.32
2022-10-29T10:03:02.205Z,12.42
2022-10-29T10:05:32.129Z,12.59
2022-10-29T10:08:14.913Z,12.68
2022-10-29T10:10:53.833Z,12.69
2022-10-29T10:13:26.982Z,12.73
2022-10-29T10:16:00.041Z,12.71
2022-10-29T10:18:33.809Z,12.76
2022-10-29T10:21:02.791Z,12.77
2022-10-29T10:23:43.019Z,12.63
2022-10-29T10:26:45.414Z,12.71
2022-10-29T10:29:16.734Z,12.89
2022-10-29T10:31:56.019Z,12.97
2022-10-29T10:34:34.951Z,13.23
2022-10-29T10:37:10.783Z,13.08
2022-10-29T10:39:38.952Z,13.07
2022-10-29T10:42:22.651Z,13.18
2022-10-29T10:44:54.444Z,13.36
2022-10-29T10:47:27.412Z,13.42
2022-10-29T10:49:54.648Z,13.37
2022-10-29T10:52:28.767Z,13.54
2022-10-29T10:54:58.087Z,13.66
2022-10-29T10:57:29.803Z,13.76
2022-10-29T11:00:06.437Z,13.60
2022-10-29T11:02:45.399Z,13.64
2022-10-29T11:05:17.648Z,13.61
2022-10-29T11:07:52.752Z,13.31
2022-10-29T11:10:24.345Z,13.28
2022-10-29T11:12:55.550Z,13.49
2022-10-29T11:15:38.365Z,13.52
2022-10-29T11:18:19.620Z,13.83
2022-10-29T11:20:52.781Z,13.80
2022-10-29T11:23:25.635Z,13.84
2022-10-29T11:26:31.589Z,13.75
2022-10-29T11:29:23.311Z,13.91
2022-10-29T11:32:00.121Z,13.88
2022-10-29T11:34:39.346Z,14.09
2022-10-29T11:37:27.874Z,14.06
2022-10-29T11:40:12.602Z,13.86
2022-10-29T11:42:41.004Z,13.82
2022-10-29T11:45:13.717Z,13.79
2022-10-29T11:48:03.415Z,13.75
2022-10-29T11:50:44.091Z,13.77
2022-10-29T11:53:32.652Z,13.75
2022-10-29T11:56:22.612Z,13.89
2022-10-29T11:58:58.143Z,13.91
2022-10-29T12:01:36.782Z,13.82
2022-10-29T12:04:23.132Z,13.84
2022-10-29T12:07:02.308Z,13.81
2022-10-29T12:09:47.739Z,13.70
2022-10-29T12:12:36.746Z,13.92
2022-10-29T12:15:09.634Z,13.89
2022-10-29T12:17:58.435Z,13.79
2022-10-29T12:20:48.653Z,13.91
2022-10-29T12:23:49.727Z,14.03
2022-10-29T12:26:42.685Z,14.04
2022-10-29T12:29:46.811Z,14.09
2022-10-29T12:32:25.536Z,13.76
2022-10-29T12:35:03.174Z,13.74
2022-10-29T12:38:18.207Z,13.90
2022-10-29T12:40:48.566Z,13.87
2022-10-29T12:43:25.510Z,13.90
2022-10-29T12:46:26.047Z,13.96
2022-10-29T12:49:40.448Z,13.91
2022-10-29T12:52:18.941Z,13.59
2022-10-29T12:54:49.677Z,13.66
2022-10-29T12:57:16.399Z,13.62
2022-10-29T12:59:44.288Z,13.79
2022-10-29T13:02:38.929Z,13.54
2022-10-29T13:05:11.670Z,13.73
2022-10-29T13:07:47.562Z,13.79
2022-10-29T13:10:30.867Z,13.72
2022-10-29T13:13:20.294Z,13.74
2022-10-29T13:16:00.846Z,13.82
2022-10-29T13:18:40.419Z,13.88
2022-10-29T13:21:08.671Z,13.90
2022-10-29T13:23:37.659Z,13.81
2022-10-29T13:26:08.796Z,14.02
2022-10-29T13:28:35.722Z,14.09
2022-10-29T13:31:05.195Z,14.13
2022-10-29T13:33:31.883Z,14.02
2022-10-29T13:36:02.937Z,14.05
2022-10-29T13:39:05.923Z,13.99
2022-10-29T13:41:54.140Z,13.99
2022-10-29T13:44:24.268Z,13.86
2022-10-29T13:47:02.687Z,13.80
2022-10-29T13:49:38.532Z,13.82
2022-10-29T13:52:19.736Z,13.83
2022-10-29T13:55:20.648Z,13.85
2022-10-29T13:58:15.301Z,13.92
2022-10-29T14:00:47.734Z,13.88
2022-10-29T14:03:26.379Z,13.82
2022-10-29T14:06:06.593Z,13.82
2022-10-29T14:09:18.418Z,13.80
2022-10-29T14:11:55.079Z,13.79
2022-10-29T14:14:35.173Z,13.67
2022-10-29T14:17:12.511Z,13.61
2022-10-29T14:19:44.645Z,13.68
2022-10-29T14:22:37.708Z,13.64
2022-10-29T14:25:24.448Z,13.60
2022-10-29T14:28:13.114Z,13.60
2022-10-29T14:30:39.976Z,13.55
2022-10-29T14:33:22.823Z,13.46
2022-10-29T14:35:49.983Z,13.44
2022-10-29T14:38:18.020Z,13.49
2022-10-29T14:40:46.582Z,13.53
2022-10-29T14:43:26.401Z,13.47
2022-10-29T14:45:56.130Z,13.41
2022-10-29T14:48:23.540Z,13.39
2022-10-29T14:50:51.515Z,13.43
2022-10-29T14:53:34.635Z,13.36
2022-10-29T14:56:09.863Z,13.28
2022-10-29T14:58:38.134Z,13.29
2022-10-29T15:01:14.519Z,13.33
2022-10-29T15:03:41.969Z,13.33
2022-10-29T15:06:20.347Z,13.33
2022-10-29T15:09:00.820Z,13.18
2022-10-29T15:11:38.373Z,13.18
2022-10-29T15:14:33.010Z,13.21
2022-10-29T15:17:01.282Z,13.17
2022-10-29T15:19:28.802Z,13.15
2022-10-29T15:21:55.632Z,13.15
2022-10-29T15:24:24.388Z,13.16
2022-10-29T15:27:02.693Z,13.14
2022-10-29T15:29:42.770Z,13.11
2022-10-29T15:32:16.065Z,13.04
2022-10-29T15:35:00.998Z,13.02
2022-10-29T15:37:30.841Z,12.96
2022-10-29T15:39:57.488Z,12.88
2022-10-29T15:42:27.749Z,12.93
2022-10-29T15:47:45.174Z,12.96
2022-10-29T15:50:21.550Z,12.96
2022-10-29T15:53:01.792Z,12.97
2022-10-29T15:55:32.115Z,12.97
2022-10-29T15:58:04.298Z,12.99
2022-10-29T16:00:32.232Z,12.92
2022-10-29T16:03:13.922Z,12.95
2022-10-29T16:05:42.897Z,12.91
2022-10-29T16:08:26.715Z,12.92
2022-10-29T16:10:54.841Z,12.81
2022-10-29T16:13:22.617Z,12.88
2022-10-29T16:15:49.362Z,12.87
2022-10-29T16:18:16.247Z,12.86
2022-10-29T16:20:43.506Z,12.81
2022-10-29T16:23:11.456Z,12.79
2022-10-29T16:25:39.084Z,12.82
2022-10-29T16:28:06.300Z,12.81
2022-10-29T16:30:34.368Z,12.80
2022-10-29T16:33:02.165Z,12.80
2022-10-29T16:35:30.446Z,12.73
2022-10-29T16:37:58.075Z,12.70
2022-10-29T16:40:27.665Z,12.72
2022-10-29T16:42:55.341Z,12.73
2022-10-29T16:45:25.367Z,12.77
2022-10-29T16:47:52.932Z,12.77
2022-10-29T16:50:25.694Z,12.74
2022-10-29T16:53:00.632Z,12.77
2022-10-29T16:55:29.183Z,12.75
2022-10-29T16:57:57.331Z,12.72
2022-10-29T17:00:26.262Z,12.72
2022-10-29T17:02:53.406Z,12.71
2022-10-29T17:05:20.210Z,12.72
2022-10-29T17:07:47.477Z,12.65
2022-10-29T17:10:14.690Z,12.66
2022-10-29T17:12:41.879Z,12.63
2022-10-29T17:15:09.542Z,12.66
2022-10-29T17:17:37.536Z,12.63
2022-10-29T17:20:06.490Z,12.62
2022-10-29T17:22:33.929Z,12.63
2022-10-29T17:25:04.057Z,12.62
2022-10-29T17:27:31.609Z,12.65
2022-10-29T17:29:59.112Z,12.60
2022-10-29T17:32:26.435Z,12.62
2022-10-29T17:34:53.685Z,12.62
2022-10-29T17:37:21.187Z,12.58
2022-10-29T17:39:48.597Z,12.60
2022-10-29T17:42:15.871Z,12.55
2022-10-29T17:44:43.090Z,12.48
2022-10-29T17:47:12.184Z,12.51
2022-10-29T17:49:39.605Z,12.53
2022-10-29T17:52:06.959Z,12.59
2022-10-29T17:54:35.394Z,12.59
2022-10-29T17:57:02.931Z,12.61
2022-10-29T17:59:30.337Z,12.60
2022-10-29T18:01:57.678Z,12.60
2022-10-29T18:04:25.069Z,12.61
2022-10-29T18:06:52.772Z,12.58
2022-10-29T18:09:21.265Z,12.62
2022-10-29T18:11:50.424Z,12.63
2022-10-29T18:14:18.223Z,12.63
2022-10-29T18:16:46.477Z,12.58
2022-10-29T18:19:14.182Z,12.59
2022-10-29T18:21:41.512Z,12.54
2022-10-29T18:24:09.481Z,12.60
2022-10-29T18:26:37.852Z,12.57
2022-10-29T18:29:08.502Z,12.60
2022-10-29T18:31:37.664Z,12.57
2022-10-29T18:34:08.034Z,12.57
2022-10-29T18:36:36.126Z,12.57
2022-10-29T18:39:06.170Z,12.58
2022-10-29T18:41:35.509Z,12.57
2022-10-29T18:44:03.374Z,12.56
2022-10-29T18:46:32.166Z,12.55
2022-10-29T18:49:00.499Z,12.55
2022-10-29T18:51:35.118Z,12.53
2022-10-29T18:54:02.947Z,12.50
2022-10-29T18:56:30.942Z,12.47
2022-10-29T18:58:59.556Z,12.42
2022-10-29T19:01:33.101Z,12.47
2022-10-29T19:04:03.750Z,12.45
2022-10-29T19:06:33.438Z,12.45
2022-10-29T19:09:04.312Z,12.44
2022-10-29T19:11:32.053Z,12.45
2022-10-29T19:14:01.804Z,12.46
2022-10-29T19:16:31.395Z,12.47
2022-10-29T19:19:01.453Z,12.47
2022-10-29T19:21:29.418Z,12.52
2022-10-29T19:23:59.864Z,12.48
2022-10-29T19:26:30.139Z,12.47
2022-10-29T19:29:02.287Z,12.49
2022-10-29T19:31:31.498Z,12.44
2022-10-29T19:34:04.329Z,12.50
2022-10-29T19:36:32.588Z,12.53
2022-10-29T19:39:00.616Z,12.49
2022-10-29T19:41:29.468Z,12.51
2022-10-29T19:44:04.248Z,12.47
2022-10-29T19:46:31.760Z,12.52
2022-10-29T19:48:59.407Z,12.47
2022-10-29T19:51:27.400Z,12.45
2022-10-29T19:53:57.428Z,12.50
2022-10-29T19:56:24.831Z,12.49
2022-10-29T19:58:52.502Z,12.48
2022-10-29T20:01:20.084Z,12.46
2022-10-29T20:03:47.730Z,12.47
2022-10-29T20:06:18.026Z,12.45
2022-10-29T20:08:46.340Z,12.43
2022-10-29T20:11:14.102Z,12.44
2022-10-29T20:13:41.634Z,12.46
2022-10-29T20:16:12.631Z,12.50
2022-10-29T20:18:40.313Z,12.53
2022-10-29T20:21:08.477Z,12.54
2022-10-29T20:23:36.102Z,12.52
2022-10-29T20:26:06.783Z,12.57
2022-10-29T20:28:35.190Z,12.56
2022-10-29T20:31:17.914Z,12.55
2022-10-29T20:33:56.732Z,12.54
2022-10-29T20:36:24.885Z,12.53
2022-10-29T20:38:53.414Z,12.51
2022-10-29T20:41:22.009Z,12.50
2022-10-29T20:43:54.147Z,12.50
2022-10-29T20:46:22.466Z,12.50
2022-10-29T20:48:49.468Z,12.51
2022-10-29T20:51:19.583Z,12.50
2022-10-29T20:53:46.458Z,12.51
2022-10-29T20:56:16.152Z,12.51
2022-10-29T20:58:43.871Z,12.52
2022-10-29T21:01:13.965Z,12.54
2022-10-29T21:03:41.566Z,12.55
2022-10-29T21:06:15.796Z,12.54
2022-10-29T21:08:44.971Z,12.53
2022-10-29T21:11:14.629Z,12.47
2022-10-29T21:13:41.969Z,12.51
2022-10-29T21:16:27.444Z,12.50
2022-10-29T21:19:01.815Z,12.52
2022-10-29T21:21:30.107Z,12.55
2022-10-29T21:23:57.311Z,12.55
2022-10-29T21:26:26.250Z,12.53
2022-10-29T21:28:54.030Z,12.50
2022-10-29T21:31:21.757Z,12.52
2022-10-29T21:33:52.780Z,12.52
2022-10-29T21:36:20.259Z,12.53
2022-10-29T21:38:48.094Z,12.51
2022-10-29T21:41:15.323Z,12.51
2022-10-29T21:43:42.132Z,12.50
2022-10-29T21:46:09.010Z,12.49
2022-10-29T21:48:36.130Z,12.43
2022-10-29T21:51:14.124Z,12.50
2022-10-29T21:53:40.930Z,12.51
2022-10-29T21:56:10.214Z,12.52
2022-10-29T21:58:36.984Z,12.52
2022-10-29T22:01:03.980Z,12.51
2022-10-29T22:03:35.054Z,12.49
2022-10-29T22:06:06.740Z,12.48
2022-10-29T22:08:34.334Z,12.49
2022-10-29T22:11:01.609Z,12.44
2022-10-29T22:13:29.708Z,12.50
2022-10-29T22:15:56.692Z,12.51
2022-10-29T22:18:24.708Z,12.47
2022-10-29T22:21:04.494Z,12.44
2022-10-29T22:23:31.376Z,12.41
2022-10-29T22:25:58.118Z,12.38
2022-10-29T22:28:25.035Z,12.41
2022-10-29T22:31:00.317Z,12.33
2022-10-29T22:33:27.801Z,12.39
2022-10-29T22:35:55.181Z,12.32
2022-10-29T22:38:22.326Z,12.32
2022-10-29T22:40:49.113Z,12.32
2022-10-29T22:43:16.200Z,12.31
2022-10-29T22:45:45.261Z,12.37
2022-10-29T22:48:12.432Z,12.38
2022-10-29T22:50:39.346Z,12.39
2022-10-29T22:53:06.258Z,12.36
2022-10-29T22:55:33.046Z,12.33
2022-10-29T22:58:00.908Z,12.32
2022-10-29T23:00:27.761Z,12.31
2022-10-29T23:02:55.050Z,12.28
2022-10-29T23:05:22.059Z,12.28
2022-10-29T23:07:48.800Z,12.29
2022-10-29T23:10:15.652Z,12.30
2022-10-29T23:12:42.408Z,12.26
2022-10-29T23:15:09.474Z,12.27
2022-10-29T23:17:36.278Z,12.24
2022-10-29T23:20:03.449Z,12.21
2022-10-29T23:22:30.258Z,12.21
2022-10-29T23:24:57.009Z,12.17
2022-10-29T23:27:23.918Z,12.21
2022-10-29T23:29:50.735Z,12.20
2022-10-29T23:32:17.552Z,12.22
2022-10-29T23:34:44.348Z,12.18
2022-10-29T23:37:11.161Z,12.17
2022-10-29T23:39:37.894Z,12.15
2022-10-29T23:42:06.071Z,12.09
2022-10-29T23:44:32.761Z,12.13
2022-10-29T23:46:59.569Z,12.13
2022-10-29T23:49:26.340Z,12.11
2022-10-29T23:51:53.206Z,12.10
2022-10-29T23:54:19.973Z,12.10
2022-10-29T23:56:46.746Z,12.07
2022-10-29T23:59:13.495Z,12.06
